Time;durP1;ratioP1;P1;durP2;ratioP2;P2;SDS_P1;SDS_P2;PMS_P1;PMS_P2;Temp;Humidity;BMP_temperature;BMP_pressure;BME280_temperature;BME280_humidity;BME280_pressure;Samples;Min_cycle;Max_cycle;Signal;HPM_P1;HPM_P2
2023/05/31 00:01:42;;;;;;;12.10;3.95;;;;;;;;;;5078552;28;22268;-79
2023/05/31 00:04:08;;;;;;;10.35;4.50;;;;;;;;;;5078274;28;20678;-79
2023/05/31 00:06:35;;;;;;;15.90;5.20;;;;;;;;;;5083568;28;20051;-79
2023/05/31 00:09:02;;;;;;;14.40;5.05;;;;;;;;;;5081756;28;20121;-79
2023/05/31 00:11:28;;;;;;;12.25;4.85;;;;;;;;;;5082873;28;20098;-79
2023/05/31 00:13:54;;;;;;;11.13;4.78;;;;;;;;;;5081652;28;20101;-79
2023/05/31 00:16:20;;;;;;;16.70;5.22;;;;;;;;;;5084550;28;20656;-80
2023/05/31 00:18:46;;;;;;;12.95;5.50;;;;;;;;;;5081428;28;20071;-79
2023/05/31 00:21:12;;;;;;;13.38;5.13;;;;;;;;;;5083832;28;20093;-79
2023/05/31 00:23:39;;;;;;;16.70;5.78;;;;;;;;;;5086061;28;20122;-79
2023/05/31 00:26:05;;;;;;;16.55;5.63;;;;;;;;;;5082728;28;20047;-79
2023/05/31 00:28:31;;;;;;;14.10;5.25;;;;;;;;;;5083530;28;20082;-79
2023/05/31 00:30:57;;;;;;;9.60;4.95;;;;;;;;;;5100779;28;20039;-79
2023/05/31 00:33:23;;;;;;;16.63;6.03;;;;;;;;;;5082896;28;20565;-79
2023/05/31 00:35:49;;;;;;;13.73;5.55;;;;;;;;;;5080766;28;20040;-79
2023/05/31 00:38:15;;;;;;;14.13;5.30;;;;;;;;;;5097429;28;20028;-79
2023/05/31 00:40:41;;;;;;;13.88;5.43;;;;;;;;;;5083286;28;20396;-79
2023/05/31 00:43:07;;;;;;;16.10;6.15;;;;;;;;;;5085527;28;20028;-79
2023/05/31 00:45:34;;;;;;;10.45;5.15;;;;;;;;;;5083238;28;20604;-79
2023/05/31 00:48:03;;;;;;;15.73;5.88;;;;;;;;;;5085678;28;20067;-79
2023/05/31 00:50:30;;;;;;;16.88;5.70;;;;;;;;;;5095865;28;20203;-80
2023/05/31 00:52:57;;;;;;;11.45;6.05;;;;;;;;;;5080662;28;20040;-79
2023/05/31 00:55:24;;;;;;;16.25;6.20;;;;;;;;;;5075747;28;20559;-79
2023/05/31 00:57:50;;;;;;;12.90;6.78;;;;;;;;;;5081086;28;20494;-78
2023/05/31 01:00:17;;;;;;;20.63;8.13;;;;;;;;;;5080468;28;20036;-79
2023/05/31 01:02:43;;;;;;;18.45;7.55;;;;;;;;;;5078246;28;20051;-80
2023/05/31 01:05:10;;;;;;;21.67;7.80;;;;;;;;;;5080139;28;20510;-80
2023/05/31 01:07:36;;;;;;;17.70;7.93;;;;;;;;;;5079775;28;20028;-80
2023/05/31 01:10:04;;;;;;;19.38;8.43;;;;;;;;;;5081413;28;20048;-80
2023/05/31 01:12:36;;;;;;;23.23;8.82;;;;;;;;;;5079744;28;20074;-79
2023/05/31 01:15:11;;;;;;;20.55;7.57;;;;;;;;;;5082001;28;20044;-80
2023/05/31 01:17:49;;;;;;;17.17;7.28;;;;;;;;;;5082124;28;20044;-80
2023/05/31 01:20:17;;;;;;;14.73;8.07;;;;;;;;;;5078600;28;20047;-80
2023/05/31 01:22:57;;;;;;;22.60;8.63;;;;;;;;;;5079086;28;20043;-80
2023/05/31 01:25:28;;;;;;;18.52;8.52;;;;;;;;;;5099888;28;20058;-80
2023/05/31 01:27:54;;;;;;;25.42;9.90;;;;;;;;;;5086505;28;20337;-80
2023/05/31 01:30:22;;;;;;;26.65;8.65;;;;;;;;;;5082465;28;20389;-80
2023/05/31 01:32:48;;;;;;;22.48;8.60;;;;;;;;;;5083600;28;20341;-80
2023/05/31 01:35:15;;;;;;;20.73;8.35;;;;;;;;;;5081434;28;20068;-80
2023/05/31 01:37:41;;;;;;;16.45;7.53;;;;;;;;;;5081481;28;20036;-80
2023/05/31 01:40:08;;;;;;;23.05;8.35;;;;;;;;;;5062418;28;20771;-75
2023/05/31 01:42:35;;;;;;;22.23;8.27;;;;;;;;;;5061808;28;20156;-74
2023/05/31 01:45:01;;;;;;;24.05;8.50;;;;;;;;;;5062362;28;20162;-75
2023/05/31 01:47:28;;;;;;;20.67;9.15;;;;;;;;;;5060462;28;20080;-75
2023/05/31 01:49:55;;;;;;;28.58;8.90;;;;;;;;;;5057464;28;20040;-74
2023/05/31 01:52:21;;;;;;;20.40;9.00;;;;;;;;;;5059669;28;22051;-74
2023/05/31 01:54:47;;;;;;;22.40;8.63;;;;;;;;;;5063401;28;20067;-74
2023/05/31 01:57:14;;;;;;;19.58;8.13;;;;;;;;;;5039089;28;20043;-74
2023/05/31 01:59:41;;;;;;;23.85;8.70;;;;;;;;;;5059333;28;20067;-74
2023/05/31 02:02:07;;;;;;;19.38;8.93;;;;;;;;;;5061865;28;20054;-75
2023/05/31 02:04:33;;;;;;;21.40;8.23;;;;;;;;;;5060712;28;20044;-74
2023/05/31 02:07:00;;;;;;;24.98;7.82;;;;;;;;;;5056628;28;20659;-74
2023/05/31 02:09:26;;;;;;;20.98;7.65;;;;;;;;;;5060986;28;20062;-74
2023/05/31 02:11:52;;;;;;;19.52;7.35;;;;;;;;;;5063440;28;20070;-74
2023/05/31 02:14:18;;;;;;;22.92;7.85;;;;;;;;;;5042699;28;20040;-74
2023/05/31 02:16:44;;;;;;;29.85;8.20;;;;;;;;;;5063574;28;20052;-73
2023/05/31 02:19:13;;;;;;;20.98;7.32;;;;;;;;;;5058219;28;20044;-75
2023/05/31 02:21:39;;;;;;;17.85;8.10;;;;;;;;;;5060786;28;20055;-75
2023/05/31 02:24:06;;;;;;;23.98;8.07;;;;;;;;;;5064031;28;20059;-75
2023/05/31 02:26:32;;;;;;;24.38;8.65;;;;;;;;;;5061059;28;20075;-75
2023/05/31 02:28:58;;;;;;;20.10;8.57;;;;;;;;;;5057604;28;20044;-74
2023/05/31 02:31:24;;;;;;;18.23;8.18;;;;;;;;;;5059895;28;20051;-75
2023/05/31 02:33:50;;;;;;;23.75;8.25;;;;;;;;;;5057214;28;20036;-74
2023/05/31 02:36:16;;;;;;;21.02;8.25;;;;;;;;;;5059581;28;20046;-74
2023/05/31 02:38:42;;;;;;;20.35;7.85;;;;;;;;;;5060977;28;20051;-74
2023/05/31 02:41:08;;;;;;;17.77;7.50;;;;;;;;;;5060941;28;20518;-74
2023/05/31 02:43:35;;;;;;;25.40;7.40;;;;;;;;;;5057110;28;21012;-74
2023/05/31 02:46:02;;;;;;;24.38;7.57;;;;;;;;;;5061926;28;20058;-74
2023/05/31 02:48:29;;;;;;;20.02;7.18;;;;;;;;;;5059147;28;20039;-74
2023/05/31 02:50:55;;;;;;;17.70;6.40;;;;;;;;;;5060584;28;20080;-74
2023/05/31 02:53:21;;;;;;;18.42;6.30;;;;;;;;;;5061348;28;20050;-74
2023/05/31 02:55:47;;;;;;;22.88;7.18;;;;;;;;;;5058279;28;21963;-75
2023/05/31 02:58:14;;;;;;;15.75;6.75;;;;;;;;;;5060641;28;20183;-75
2023/05/31 03:00:41;;;;;;;14.52;6.10;;;;;;;;;;5057340;28;22587;-74
2023/05/31 03:03:07;;;;;;;23.25;6.43;;;;;;;;;;5060498;28;20050;-74
2023/05/31 03:05:33;;;;;;;16.63;6.53;;;;;;;;;;5057110;28;20511;-74
2023/05/31 03:07:59;;;;;;;10.32;6.35;;;;;;;;;;5061944;28;20033;-74
2023/05/31 03:10:25;;;;;;;14.85;6.55;;;;;;;;;;5060703;28;20063;-74
2023/05/31 03:12:52;;;;;;;28.13;7.20;;;;;;;;;;5074640;28;20032;-74
2023/05/31 03:15:18;;;;;;;19.05;6.70;;;;;;;;;;5082942;28;20087;-74
2023/05/31 03:17:44;;;;;;;17.35;6.47;;;;;;;;;;5081220;28;20071;-74
2023/05/31 03:20:10;;;;;;;18.42;6.30;;;;;;;;;;5082363;28;20051;-73
2023/05/31 03:22:37;;;;;;;16.88;6.50;;;;;;;;;;5050860;28;20044;-73
2023/05/31 03:25:04;;;;;;;14.13;6.45;;;;;;;;;;5064203;28;20048;-73
2023/05/31 03:27:30;;;;;;;20.33;6.57;;;;;;;;;;5059605;28;20051;-73
2023/05/31 03:29:56;;;;;;;15.90;6.35;;;;;;;;;;5055185;28;20082;-74
2023/05/31 03:32:22;;;;;;;13.05;6.28;;;;;;;;;;5057328;28;20105;-74
2023/05/31 03:34:48;;;;;;;18.60;7.30;;;;;;;;;;5055216;28;20039;-74
2023/05/31 03:37:15;;;;;;;16.17;7.38;;;;;;;;;;5053383;28;20072;-74
2023/05/31 03:39:41;;;;;;;17.70;7.85;;;;;;;;;;5053940;28;22134;-74
2023/05/31 03:42:07;;;;;;;15.95;7.78;;;;;;;;;;5034295;28;20036;-74
2023/05/31 03:44:33;;;;;;;19.52;7.93;;;;;;;;;;5036180;28;20076;-74
2023/05/31 03:46:59;;;;;;;21.05;9.05;;;;;;;;;;5036051;28;20048;-74
2023/05/31 03:49:25;;;;;;;13.57;6.95;;;;;;;;;;5057734;28;20077;-74
2023/05/31 03:51:52;;;;;;;18.30;7.32;;;;;;;;;;5017948;28;21226;-74
2023/05/31 03:54:18;;;;;;;18.15;8.90;;;;;;;;;;5054180;28;20044;-74
2023/05/31 03:56:44;;;;;;;18.40;7.88;;;;;;;;;;5055148;28;20044;-74
2023/05/31 03:59:10;;;;;;;18.73;7.55;;;;;;;;;;5055033;28;20059;-74
2023/05/31 04:01:37;;;;;;;16.10;8.48;;;;;;;;;;5058390;28;20056;-74
2023/05/31 04:04:03;;;;;;;17.45;7.50;;;;;;;;;;5057884;28;20052;-74
2023/05/31 04:06:29;;;;;;;18.73;8.15;;;;;;;;;;5056294;28;20507;-74
2023/05/31 04:08:55;;;;;;;20.30;8.35;;;;;;;;;;5056217;28;20047;-74
2023/05/31 04:11:22;;;;;;;14.82;7.72;;;;;;;;;;5076606;28;20155;-74
2023/05/31 04:13:48;;;;;;;20.70;8.68;;;;;;;;;;5071089;28;20097;-74
2023/05/31 04:16:14;;;;;;;16.33;7.82;;;;;;;;;;5058204;28;20071;-73
2023/05/31 04:18:41;;;;;;;18.33;7.88;;;;;;;;;;5061018;28;20044;-74
2023/05/31 04:21:07;;;;;;;15.48;8.23;;;;;;;;;;5061161;28;20817;-74
2023/05/31 04:23:34;;;;;;;14.50;8.05;;;;;;;;;;5060089;28;20048;-74
2023/05/31 04:26:01;;;;;;;20.40;8.10;;;;;;;;;;5058996;28;20040;-74
2023/05/31 04:28:29;;;;;;;17.40;8.02;;;;;;;;;;5041572;28;20166;-74
2023/05/31 04:30:56;;;;;;;21.83;8.45;;;;;;;;;;5059394;28;20048;-73
2023/05/31 04:33:23;;;;;;;26.23;9.23;;;;;;;;;;5058906;28;20048;-73
2023/05/31 04:35:50;;;;;;;20.92;8.00;;;;;;;;;;5054259;28;20403;-73
2023/05/31 04:38:18;;;;;;;21.90;9.10;;;;;;;;;;5058385;28;20562;-74
2023/05/31 04:40:44;;;;;;;20.52;8.18;;;;;;;;;;5055868;28;20094;-73
2023/05/31 04:43:10;;;;;;;20.73;8.68;;;;;;;;;;5059142;28;20043;-74
2023/05/31 04:45:36;;;;;;;21.20;8.45;;;;;;;;;;5058676;28;20444;-73
2023/05/31 04:48:02;;;;;;;18.17;8.48;;;;;;;;;;5058992;28;20076;-74
2023/05/31 04:50:29;;;;;;;23.80;8.77;;;;;;;;;;5059155;28;20040;-73
2023/05/31 04:52:55;;;;;;;17.65;7.70;;;;;;;;;;5032731;28;20043;-74
2023/05/31 04:55:21;;;;;;;16.40;8.20;;;;;;;;;;5056617;28;21349;-73
2023/05/31 04:57:47;;;;;;;23.73;9.57;;;;;;;;;;5057638;28;20077;-73
2023/05/31 05:00:17;;;;;;;20.17;7.32;;;;;;;;;;5061032;28;20048;-73
2023/05/31 05:02:43;;;;;;;14.38;6.03;;;;;;;;;;5057788;28;20089;-73
2023/05/31 05:05:09;;;;;;;18.85;5.10;;;;;;;;;;5060969;28;20051;-73
2023/05/31 05:07:36;;;;;;;13.35;3.67;;;;;;;;;;5056587;28;20076;-73
2023/05/31 05:10:02;;;;;;;10.68;4.25;;;;;;;;;;5061650;28;20072;-72
2023/05/31 05:12:29;;;;;;;12.15;3.42;;;;;;;;;;5060739;28;20159;-73
2023/05/31 05:14:55;;;;;;;12.10;3.22;;;;;;;;;;5060006;28;20039;-73
2023/05/31 05:17:21;;;;;;;6.05;2.38;;;;;;;;;;5060239;28;20040;-73
2023/05/31 05:19:47;;;;;;;10.80;2.00;;;;;;;;;;5060197;28;20076;-74
2023/05/31 05:22:13;;;;;;;9.68;2.22;;;;;;;;;;5060987;28;20077;-73
2023/05/31 05:24:39;;;;;;;8.25;1.65;;;;;;;;;;5072046;28;20062;-73
2023/05/31 05:27:06;;;;;;;5.43;1.75;;;;;;;;;;5057589;28;20123;-74
2023/05/31 05:29:32;;;;;;;6.05;1.52;;;;;;;;;;5059864;28;20043;-74
2023/05/31 05:31:58;;;;;;;6.43;2.00;;;;;;;;;;5069580;28;22222;-74
2023/05/31 05:34:25;;;;;;;9.77;1.70;;;;;;;;;;5060322;28;20072;-74
2023/05/31 05:36:52;;;;;;;6.55;2.25;;;;;;;;;;5075406;28;20081;-73
2023/05/31 05:39:18;;;;;;;5.63;1.25;;;;;;;;;;5058325;28;20043;-74
2023/05/31 05:41:44;;;;;;;6.47;1.75;;;;;;;;;;5063025;28;20080;-74
2023/05/31 05:44:10;;;;;;;6.63;1.60;;;;;;;;;;5072821;28;20040;-74
2023/05/31 05:46:36;;;;;;;10.25;2.50;;;;;;;;;;5061198;28;20055;-74
2023/05/31 05:49:02;;;;;;;2.58;0.93;;;;;;;;;;5073141;28;20233;-74
2023/05/31 05:51:29;;;;;;;4.85;1.30;;;;;;;;;;5060335;28;20036;-74
2023/05/31 05:53:55;;;;;;;4.95;1.27;;;;;;;;;;5058761;28;20040;-74
2023/05/31 05:56:21;;;;;;;6.93;1.15;;;;;;;;;;5058501;28;20855;-74
2023/05/31 05:58:47;;;;;;;5.03;1.02;;;;;;;;;;5058119;28;20511;-74
2023/05/31 06:01:20;;;;;;;4.47;1.17;;;;;;;;;;5057827;28;20369;-74
2023/05/31 06:03:50;;;;;;;3.47;1.00;;;;;;;;;;5059416;28;20040;-74
2023/05/31 06:06:16;;;;;;;7.22;2.17;;;;;;;;;;5057331;28;20040;-73
2023/05/31 06:08:43;;;;;;;7.80;1.30;;;;;;;;;;5059238;28;20124;-73
2023/05/31 06:11:10;;;;;;;6.55;1.55;;;;;;;;;;5039684;28;20633;-74
2023/05/31 06:13:36;;;;;;;4.13;1.10;;;;;;;;;;5060325;28;20473;-73
2023/05/31 06:16:05;;;;;;;11.43;1.75;;;;;;;;;;5062050;28;20043;-73
2023/05/31 06:18:31;;;;;;;6.30;1.20;;;;;;;;;;5044422;28;20476;-74
2023/05/31 06:20:57;;;;;;;5.03;1.13;;;;;;;;;;5065518;28;20670;-72
2023/05/31 06:23:24;;;;;;;11.18;1.50;;;;;;;;;;5062025;28;20097;-72
2023/05/31 06:25:51;;;;;;;3.92;1.10;;;;;;;;;;5039248;28;20075;-72
2023/05/31 06:28:17;;;;;;;6.70;1.20;;;;;;;;;;5041097;28;21347;-72
2023/05/31 06:30:43;;;;;;;8.02;2.03;;;;;;;;;;5057868;28;20052;-73
2023/05/31 06:33:09;;;;;;;6.57;1.25;;;;;;;;;;5057267;28;23369;-73
2023/05/31 06:35:35;;;;;;;8.20;1.20;;;;;;;;;;5058903;28;20041;-72
2023/05/31 06:38:03;;;;;;;9.57;1.20;;;;;;;;;;5058845;28;20072;-72
2023/05/31 06:40:29;;;;;;;7.55;1.20;;;;;;;;;;5061026;28;20073;-73
2023/05/31 06:42:55;;;;;;;6.53;2.05;;;;;;;;;;5052902;28;20438;-73
2023/05/31 06:45:22;;;;;;;7.90;1.70;;;;;;;;;;5059187;28;20548;-73
2023/05/31 06:47:48;;;;;;;3.53;1.10;;;;;;;;;;5039161;28;20130;-73
2023/05/31 06:50:14;;;;;;;6.72;1.13;;;;;;;;;;5057554;28;20036;-73
2023/05/31 06:52:40;;;;;;;5.75;1.42;;;;;;;;;;5059008;28;20585;-73
2023/05/31 06:55:06;;;;;;;5.72;1.40;;;;;;;;;;5059692;28;20093;-73
2023/05/31 06:57:32;;;;;;;7.53;1.40;;;;;;;;;;5043591;28;20040;-73
2023/05/31 06:59:58;;;;;;;7.78;1.60;;;;;;;;;;5065004;28;20056;-74
2023/05/31 07:02:27;;;;;;;10.88;1.80;;;;;;;;;;5064376;28;20427;-73
2023/05/31 07:04:53;;;;;;;8.95;1.75;;;;;;;;;;5061048;28;20048;-73
2023/05/31 07:07:19;;;;;;;7.88;1.40;;;;;;;;;;5065344;28;20128;-73
2023/05/31 07:09:45;;;;;;;12.15;1.45;;;;;;;;;;5072533;28;20036;-77
2023/05/31 07:12:11;;;;;;;11.60;2.75;;;;;;;;;;5095337;28;20044;-77
2023/05/31 07:14:37;;;;;;;10.80;2.42;;;;;;;;;;5076638;28;20059;-76
2023/05/31 07:17:03;;;;;;;7.63;1.92;;;;;;;;;;5095661;28;20036;-77
2023/05/31 07:19:30;;;;;;;10.52;2.08;;;;;;;;;;5090820;28;20040;-78
2023/05/31 07:21:56;;;;;;;8.13;1.63;;;;;;;;;;5090928;28;20052;-77
2023/05/31 07:24:22;;;;;;;15.68;2.65;;;;;;;;;;5069974;28;20036;-77
2023/05/31 07:26:48;;;;;;;9.35;1.80;;;;;;;;;;5084788;28;20036;-77
2023/05/31 07:29:14;;;;;;;17.10;3.20;;;;;;;;;;5081160;28;20842;-78
2023/05/31 07:31:40;;;;;;;12.80;3.10;;;;;;;;;;5081015;28;20669;-78
2023/05/31 07:34:09;;;;;;;12.05;2.20;;;;;;;;;;5082579;28;20063;-78
2023/05/31 07:36:35;;;;;;;12.55;2.95;;;;;;;;;;5083749;28;20061;-77
2023/05/31 07:39:01;;;;;;;14.88;3.65;;;;;;;;;;5081605;28;20051;-78
2023/05/31 07:41:27;;;;;;;12.95;3.22;;;;;;;;;;5075603;28;20044;-78
2023/05/31 07:43:54;;;;;;;10.90;2.70;;;;;;;;;;5077594;28;20044;-78
2023/05/31 07:46:20;;;;;;;14.55;2.97;;;;;;;;;;5088950;28;20104;-78
2023/05/31 07:48:47;;;;;;;8.45;2.97;;;;;;;;;;5077336;28;20039;-77
2023/05/31 07:51:13;;;;;;;13.70;2.72;;;;;;;;;;5096105;28;20110;-77
2023/05/31 07:53:40;;;;;;;13.55;3.35;;;;;;;;;;5076113;28;20047;-78
2023/05/31 07:56:07;;;;;;;16.02;3.58;;;;;;;;;;5080162;28;20047;-77
2023/05/31 07:58:33;;;;;;;14.50;3.47;;;;;;;;;;5079509;28;20560;-78
2023/05/31 08:01:00;;;;;;;15.43;3.03;;;;;;;;;;5078193;28;20056;-78
2023/05/31 08:03:26;;;;;;;16.42;3.22;;;;;;;;;;5069050;28;20043;-69
2023/05/31 08:05:52;;;;;;;17.55;3.45;;;;;;;;;;5064696;28;20052;-70
2023/05/31 08:08:18;;;;;;;13.73;3.35;;;;;;;;;;5059424;28;20058;-70
2023/05/31 08:10:45;;;;;;;14.30;3.47;;;;;;;;;;5065337;28;20046;-69
2023/05/31 08:13:11;;;;;;;20.65;3.72;;;;;;;;;;5062042;28;20032;-70
2023/05/31 08:15:37;;;;;;;17.90;3.75;;;;;;;;;;5064685;28;20040;-70
2023/05/31 08:18:03;;;;;;;14.15;3.75;;;;;;;;;;5065783;28;20176;-70
2023/05/31 08:20:29;;;;;;;19.05;3.28;;;;;;;;;;5065201;28;20082;-70
2023/05/31 08:22:55;;;;;;;11.95;3.35;;;;;;;;;;5064262;28;20051;-70
2023/05/31 08:25:22;;;;;;;14.32;3.60;;;;;;;;;;5066516;28;20462;-69
2023/05/31 08:27:48;;;;;;;17.20;3.97;;;;;;;;;;5061810;28;21707;-70
2023/05/31 08:30:14;;;;;;;10.30;4.00;;;;;;;;;;5063800;28;20180;-70
2023/05/31 08:32:40;;;;;;;9.57;3.80;;;;;;;;;;5066135;28;20578;-70
2023/05/31 08:35:07;;;;;;;13.45;3.95;;;;;;;;;;5069764;28;20299;-69
2023/05/31 08:37:37;;;;;;;10.90;4.30;;;;;;;;;;5066373;28;20044;-70
2023/05/31 08:40:05;;;;;;;13.48;4.20;;;;;;;;;;5067695;28;20452;-70
2023/05/31 08:42:51;;;;;;;11.00;4.30;;;;;;;;;;5066309;28;20090;-70
2023/05/31 08:45:18;;;;;;;14.13;5.03;;;;;;;;;;5071240;28;20495;-70
2023/05/31 08:47:46;;;;;;;15.70;4.88;;;;;;;;;;5070604;28;20052;-70
2023/05/31 08:50:13;;;;;;;11.15;4.00;;;;;;;;;;5066321;28;20123;-70
2023/05/31 08:52:39;;;;;;;9.52;3.80;;;;;;;;;;5069523;28;20048;-70
2023/05/31 08:55:06;;;;;;;10.35;4.05;;;;;;;;;;5069886;28;20044;-70
2023/05/31 08:57:33;;;;;;;9.25;4.18;;;;;;;;;;5068008;28;20048;-70
2023/05/31 09:00:03;;;;;;;9.50;4.28;;;;;;;;;;5068959;28;20070;-70
2023/05/31 09:02:31;;;;;;;13.85;4.60;;;;;;;;;;5068318;28;20063;-70
2023/05/31 09:04:57;;;;;;;7.45;4.18;;;;;;;;;;5067544;28;20067;-70
2023/05/31 09:07:23;;;;;;;7.30;3.30;;;;;;;;;;5066470;28;20599;-70
2023/05/31 09:09:49;;;;;;;7.85;3.58;;;;;;;;;;5063870;28;20124;-70
2023/05/31 09:12:15;;;;;;;9.30;3.08;;;;;;;;;;5065812;28;20043;-69
2023/05/31 09:14:42;;;;;;;7.88;3.90;;;;;;;;;;5063402;28;20044;-70
2023/05/31 09:17:08;;;;;;;11.65;3.30;;;;;;;;;;5065245;28;20058;-70
2023/05/31 09:19:34;;;;;;;6.07;2.97;;;;;;;;;;5065193;28;20086;-70
2023/05/31 09:22:00;;;;;;;8.13;3.28;;;;;;;;;;5066576;28;20058;-70
2023/05/31 09:24:26;;;;;;;9.85;2.90;;;;;;;;;;5063311;28;20124;-70
2023/05/31 09:26:55;;;;;;;8.80;3.15;;;;;;;;;;5045706;28;20075;-70
2023/05/31 09:29:22;;;;;;;9.30;3.47;;;;;;;;;;5067304;28;20415;-70
2023/05/31 09:31:48;;;;;;;7.95;2.58;;;;;;;;;;5064497;28;20062;-70
2023/05/31 09:34:29;;;;;;;9.60;3.63;;;;;;;;;;5062677;28;20080;-70
2023/05/31 09:36:59;;;;;;;5.95;2.38;;;;;;;;;;5063267;28;20052;-69
2023/05/31 09:39:25;;;;;;;8.15;2.53;;;;;;;;;;5066998;28;20044;-71
2023/05/31 09:41:52;;;;;;;13.73;3.10;;;;;;;;;;5065977;28;21991;-70
2023/05/31 09:44:18;;;;;;;9.80;2.80;;;;;;;;;;5066304;28;20055;-70
2023/05/31 09:46:47;;;;;;;7.03;3.33;;;;;;;;;;5067950;28;20055;-70
2023/05/31 09:49:13;;;;;;;9.43;2.88;;;;;;;;;;5066510;28;20937;-71
2023/05/31 09:51:40;;;;;;;5.85;2.20;;;;;;;;;;5060430;28;20134;-71
2023/05/31 09:54:17;;;;;;;7.47;2.67;;;;;;;;;;5042050;28;20071;-71
2023/05/31 09:56:43;;;;;;;10.30;3.13;;;;;;;;;;5067557;28;20487;-71
2023/05/31 09:59:10;;;;;;;8.48;2.40;;;;;;;;;;5067734;28;20087;-71
2023/05/31 10:01:37;;;;;;;8.68;2.63;;;;;;;;;;5065571;28;20052;-71
2023/05/31 10:04:04;;;;;;;9.68;2.88;;;;;;;;;;5067307;28;20101;-71
2023/05/31 10:06:34;;;;;;;13.02;2.85;;;;;;;;;;5067936;28;20132;-71
2023/05/31 10:09:02;;;;;;;9.25;3.13;;;;;;;;;;5065060;28;20787;-71
2023/05/31 10:11:31;;;;;;;8.18;3.15;;;;;;;;;;5066788;28;20294;-71
2023/05/31 10:13:59;;;;;;;10.93;2.22;;;;;;;;;;5064396;28;20040;-70
2023/05/31 10:16:31;;;;;;;8.20;2.67;;;;;;;;;;5064844;28;20191;-70
2023/05/31 10:18:59;;;;;;;6.90;2.80;;;;;;;;;;5067417;28;20047;-71
2023/05/31 10:21:26;;;;;;;11.70;2.53;;;;;;;;;;5065752;28;20415;-71
2023/05/31 10:23:55;;;;;;;11.27;2.90;;;;;;;;;;5065418;28;20044;-71
2023/05/31 10:26:22;;;;;;;9.90;2.40;;;;;;;;;;5062637;28;20101;-71
2023/05/31 10:28:51;;;;;;;8.77;2.80;;;;;;;;;;5064014;28;20647;-71
2023/05/31 10:31:19;;;;;;;12.27;3.00;;;;;;;;;;5064189;28;20066;-70
2023/05/31 10:33:48;;;;;;;7.45;2.72;;;;;;;;;;5064139;28;20050;-71
2023/05/31 10:36:15;;;;;;;12.20;3.03;;;;;;;;;;5065294;28;20111;-71
2023/05/31 10:38:46;;;;;;;10.60;2.80;;;;;;;;;;5068427;28;20925;-70
2023/05/31 10:41:16;;;;;;;8.65;2.53;;;;;;;;;;5065779;28;20279;-70
2023/05/31 10:43:42;;;;;;;11.85;2.50;;;;;;;;;;5067729;28;20182;-71
2023/05/31 10:46:14;;;;;;;7.13;2.30;;;;;;;;;;5068524;28;20075;-70
2023/05/31 10:48:52;;;;;;;7.50;2.70;;;;;;;;;;5066259;28;20048;-71
2023/05/31 10:51:19;;;;;;;9.05;3.05;;;;;;;;;;5065419;28;20044;-71
2023/05/31 10:53:50;;;;;;;5.85;2.50;;;;;;;;;;5065062;28;20071;-71
2023/05/31 10:56:18;;;;;;;5.05;2.25;;;;;;;;;;5062954;28;20044;-71
2023/05/31 10:58:48;;;;;;;6.55;2.50;;;;;;;;;;5060756;28;20064;-72
2023/05/31 11:01:15;;;;;;;5.40;2.72;;;;;;;;;;5064952;28;20063;-71
2023/05/31 11:03:46;;;;;;;15.48;3.17;;;;;;;;;;5062082;28;20189;-71
2023/05/31 11:06:13;;;;;;;5.57;2.20;;;;;;;;;;5063184;28;20046;-72
2023/05/31 11:08:40;;;;;;;10.25;2.35;;;;;;;;;;5063130;28;20058;-71
2023/05/31 11:11:28;;;;;;;5.97;2.00;;;;;;;;;;5061970;28;20057;-72
2023/05/31 11:14:06;;;;;;;8.65;2.72;;;;;;;;;;5059314;28;20040;-71
2023/05/31 11:16:33;;;;;;;7.30;2.80;;;;;;;;;;5056756;28;22058;-72
2023/05/31 11:19:18;;;;;;;9.13;2.40;;;;;;;;;;5061633;28;20490;-71
2023/05/31 11:21:51;;;;;;;11.35;3.38;;;;;;;;;;5061682;28;22035;-71
2023/05/31 11:24:36;;;;;;;8.52;3.00;;;;;;;;;;5064105;28;20052;-72
2023/05/31 11:27:03;;;;;;;9.57;2.50;;;;;;;;;;5059318;28;20139;-72
2023/05/31 11:29:46;;;;;;;10.73;2.28;;;;;;;;;;5061486;28;20381;-71
2023/05/31 11:32:12;;;;;;;6.97;2.55;;;;;;;;;;5061510;28;20173;-72
2023/05/31 11:34:56;;;;;;;7.50;2.42;;;;;;;;;;5066934;28;20400;-71
2023/05/31 11:37:22;;;;;;;7.32;2.20;;;;;;;;;;5045964;28;20094;-71
2023/05/31 11:39:48;;;;;;;10.68;2.83;;;;;;;;;;5060557;28;20067;-71
2023/05/31 11:42:15;;;;;;;9.18;2.63;;;;;;;;;;5060265;28;20043;-72
2023/05/31 11:44:45;;;;;;;4.68;2.20;;;;;;;;;;5058685;28;20116;-71
2023/05/31 11:47:17;;;;;;;7.93;2.63;;;;;;;;;;5063443;28;21074;-72
2023/05/31 11:49:44;;;;;;;5.65;2.20;;;;;;;;;;5062214;28;20052;-71
2023/05/31 11:52:15;;;;;;;10.20;3.30;;;;;;;;;;5062455;28;20050;-71
2023/05/31 11:54:43;;;;;;;5.93;2.35;;;;;;;;;;5058869;28;20044;-71
2023/05/31 11:57:09;;;;;;;9.25;3.03;;;;;;;;;;5060469;28;20131;-72
2023/05/31 11:59:36;;;;;;;6.72;2.47;;;;;;;;;;5059902;28;20097;-71
2023/05/31 12:02:03;;;;;;;7.18;2.83;;;;;;;;;;5042090;28;20052;-71
2023/05/31 12:04:30;;;;;;;7.78;2.95;;;;;;;;;;5061708;28;20051;-72
2023/05/31 12:06:56;;;;;;;10.75;3.05;;;;;;;;;;5062269;28;20052;-71
2023/05/31 12:09:24;;;;;;;7.20;2.67;;;;;;;;;;5057217;28;20051;-71
2023/05/31 12:11:50;;;;;;;6.72;2.70;;;;;;;;;;5059036;28;22150;-71
2023/05/31 12:14:16;;;;;;;6.97;2.50;;;;;;;;;;5062863;28;20044;-71
2023/05/31 12:16:44;;;;;;;10.57;3.00;;;;;;;;;;5064282;28;20074;-72
2023/05/31 12:19:13;;;;;;;9.05;3.22;;;;;;;;;;5065333;28;20123;-72
2023/05/31 12:21:39;;;;;;;7.50;3.00;;;;;;;;;;5061534;28;20078;-72
2023/05/31 12:24:12;;;;;;;7.68;2.40;;;;;;;;;;5060838;28;20051;-70
2023/05/31 12:26:39;;;;;;;8.55;2.85;;;;;;;;;;5052368;28;20126;-72
2023/05/31 12:29:05;;;;;;;10.07;2.95;;;;;;;;;;5059966;28;20040;-72
2023/05/31 12:31:34;;;;;;;9.15;2.92;;;;;;;;;;5061715;28;21977;-71
2023/05/31 12:34:07;;;;;;;6.80;2.70;;;;;;;;;;5063040;28;20052;-71
2023/05/31 12:36:42;;;;;;;7.45;2.80;;;;;;;;;;5061284;28;20044;-71
2023/05/31 12:39:09;;;;;;;8.73;3.10;;;;;;;;;;5062974;28;20081;-71
2023/05/31 12:41:35;;;;;;;9.50;2.80;;;;;;;;;;5063579;28;20040;-71
2023/05/31 12:44:01;;;;;;;10.60;3.28;;;;;;;;;;5061840;28;20036;-71
2023/05/31 12:46:28;;;;;;;8.95;2.65;;;;;;;;;;5056755;28;20054;-71
2023/05/31 12:48:54;;;;;;;10.75;3.78;;;;;;;;;;5062601;28;20081;-71
2023/05/31 12:51:23;;;;;;;9.57;3.28;;;;;;;;;;5062867;28;20032;-71
2023/05/31 12:53:49;;;;;;;8.23;2.33;;;;;;;;;;5044148;28;20150;-71
2023/05/31 12:56:16;;;;;;;10.63;3.53;;;;;;;;;;5063472;28;20045;-71
2023/05/31 12:58:42;;;;;;;8.15;3.70;;;;;;;;;;5061752;28;20052;-71
2023/05/31 13:01:09;;;;;;;10.43;2.70;;;;;;;;;;5071558;28;20044;-82
2023/05/31 13:03:36;;;;;;;9.32;2.85;;;;;;;;;;5073406;28;20071;-83
2023/05/31 13:06:04;;;;;;;12.57;3.33;;;;;;;;;;5075311;28;20051;-84
2023/05/31 13:08:30;;;;;;;7.30;2.60;;;;;;;;;;5072408;28;20660;-84
2023/05/31 13:10:56;;;;;;;6.35;2.50;;;;;;;;;;5075442;28;20044;-83
2023/05/31 13:13:22;;;;;;;7.28;2.72;;;;;;;;;;5056661;28;20040;-81
2023/05/31 13:15:48;;;;;;;9.15;2.67;;;;;;;;;;5075350;28;20036;-84
2023/05/31 13:18:15;;;;;;;6.70;2.22;;;;;;;;;;5079905;28;20119;-84
2023/05/31 13:20:41;;;;;;;10.40;3.20;;;;;;;;;;5080106;28;20069;-84
2023/05/31 13:23:08;;;;;;;7.05;2.67;;;;;;;;;;5066574;28;20106;-85
2023/05/31 13:25:35;;;;;;;6.78;2.63;;;;;;;;;;5064495;28;20051;-84
2023/05/31 13:28:01;;;;;;;7.22;2.80;;;;;;;;;;5077475;28;20036;-84
2023/05/31 13:30:27;;;;;;;9.05;2.90;;;;;;;;;;5077984;28;20028;-84
2023/05/31 13:32:53;;;;;;;10.32;2.50;;;;;;;;;;5076891;28;20051;-84
2023/05/31 13:35:19;;;;;;;5.30;2.42;;;;;;;;;;5080735;28;20171;-85
2023/05/31 13:37:45;;;;;;;6.65;2.70;;;;;;;;;;5080801;28;20074;-83
2023/05/31 13:40:12;;;;;;;8.20;3.22;;;;;;;;;;5064282;28;20380;-84
2023/05/31 13:42:38;;;;;;;5.72;2.50;;;;;;;;;;5061096;28;21141;-84
2023/05/31 13:45:05;;;;;;;4.90;2.60;;;;;;;;;;5063347;28;20051;-83
2023/05/31 13:47:31;;;;;;;5.97;2.70;;;;;;;;;;5079540;28;20032;-82
2023/05/31 13:49:57;;;;;;;9.52;2.75;;;;;;;;;;5097387;27;20935;-83
2023/05/31 13:52:23;;;;;;;7.65;2.58;;;;;;;;;;5059616;28;20055;-83
2023/05/31 13:54:49;;;;;;;14.48;7.45;;;;;;;;;;5080091;28;20044;-83
2023/05/31 13:57:15;;;;;;;7.40;2.58;;;;;;;;;;5076602;28;20154;-71
2023/05/31 13:59:41;;;;;;;7.78;2.58;;;;;;;;;;5064256;28;20059;-71
2023/05/31 14:02:07;;;;;;;7.55;2.67;;;;;;;;;;5065017;28;20900;-71
2023/05/31 14:04:33;;;;;;;7.53;2.60;;;;;;;;;;5065198;28;20140;-71
2023/05/31 14:07:01;;;;;;;4.68;2.50;;;;;;;;;;5060031;28;20047;-71
2023/05/31 14:09:27;;;;;;;6.43;2.40;;;;;;;;;;5064939;28;20824;-71
2023/05/31 14:11:53;;;;;;;8.15;2.40;;;;;;;;;;5065165;28;20040;-71
2023/05/31 14:14:19;;;;;;;7.85;2.35;;;;;;;;;;5059131;28;20040;-71
2023/05/31 14:16:45;;;;;;;7.75;2.15;;;;;;;;;;5065674;28;20044;-71
2023/05/31 14:19:11;;;;;;;5.43;2.30;;;;;;;;;;5064529;28;20436;-71
2023/05/31 14:21:37;;;;;;;7.22;2.65;;;;;;;;;;5064150;28;20055;-71
2023/05/31 14:24:04;;;;;;;6.32;2.70;;;;;;;;;;5074352;28;20040;-71
2023/05/31 14:26:30;;;;;;;8.73;3.50;;;;;;;;;;5061758;28;20044;-71
2023/05/31 14:28:56;;;;;;;6.15;2.90;;;;;;;;;;5061232;28;20068;-71
2023/05/31 14:31:22;;;;;;;9.02;3.28;;;;;;;;;;5045064;28;20138;-71
2023/05/31 14:33:48;;;;;;;10.73;3.42;;;;;;;;;;5061610;28;20162;-71
2023/05/31 14:36:14;;;;;;;5.88;2.92;;;;;;;;;;5061011;28;20044;-71